Harare, Zimbabwe
Current Conditions -  °F | °C
As of 10:00 PM on Thursday 23 Oct 2014 (Local Time) from FVHA Reporting Station
Scattered Clouds Scattered Clouds  
Wind Chill: 22°   Ceiling: Unl
Heat Index: 22°   Visibility: 6mi
Dew Point:   Wind: 10mph
Humidity: 41%   Direction: 50°NE
Pressure: 30.18"   Gusts: NA
Location:  17.82°S, 31.05°E
Report Text: FVHA 232000Z 05009KT 9999 FEW045CB SCT050 22/08 Q1022 TEMPO TS
Loading
Personal Weather Stations






























Interactive Weather Map New forecast layout! Learn more

10-Day Weather Forecast

Advertisements
Track Severe Weather on mobile